createdAt,value
2018-12-04T00:00:09.178Z,0.46
2018-12-04T00:00:40.390Z,0.46
2018-12-04T00:01:11.501Z,0.45
2018-12-04T00:01:42.630Z,0.44
2018-12-04T00:02:13.737Z,0.45
2018-12-04T00:02:44.851Z,0.46
2018-12-04T00:03:16.006Z,0.45
2018-12-04T00:03:47.151Z,0.42
2018-12-04T00:04:18.413Z,0.40
2018-12-04T00:04:49.526Z,0.42
2018-12-04T00:05:20.654Z,0.41
2018-12-04T00:05:51.764Z,0.40
2018-12-04T00:06:22.878Z,0.38
2018-12-04T00:06:54.008Z,0.36
2018-12-04T00:07:25.120Z,0.36
2018-12-04T00:07:56.327Z,0.34
2018-12-04T00:08:27.534Z,0.35
2018-12-04T00:08:58.659Z,0.35
2018-12-04T00:09:29.772Z,0.32
2018-12-04T00:10:00.925Z,0.32
2018-12-04T00:10:32.113Z,0.28
2018-12-04T00:11:03.205Z,0.25
2018-12-04T00:11:34.313Z,0.24
2018-12-04T00:12:05.460Z,0.23
2018-12-04T00:12:36.579Z,0.19
2018-12-04T00:13:07.719Z,0.19
2018-12-04T00:13:38.821Z,0.15
2018-12-04T00:14:09.933Z,0.14
2018-12-04T00:14:41.033Z,0.09
2018-12-04T00:15:12.138Z,0.09
2018-12-04T00:15:43.246Z,0.06
2018-12-04T00:16:14.339Z,0.04
2018-12-04T00:16:45.476Z,0.03
2018-12-04T00:17:16.662Z,0.00
2018-12-04T00:17:47.778Z,0.01
2018-12-04T00:18:18.895Z,-0.01
2018-12-04T00:18:50.010Z,-0.02
2018-12-04T00:19:21.120Z,-0.01
2018-12-04T00:19:52.236Z,0.02
2018-12-04T00:20:23.468Z,0.03
2018-12-04T00:20:54.630Z,0.04
2018-12-04T00:21:25.745Z,0.02
2018-12-04T00:21:56.847Z,0.05
2018-12-04T00:22:27.989Z,0.04
2018-12-04T00:22:59.108Z,0.02
2018-12-04T00:23:30.232Z,0.02
2018-12-04T00:24:01.336Z,0.02
2018-12-04T00:24:32.449Z,0.02
2018-12-04T00:25:03.558Z,0.01
2018-12-04T00:25:34.675Z,-0.01
2018-12-04T00:26:05.798Z,0.01
2018-12-04T00:26:36.967Z,-0.02
2018-12-04T00:27:08.117Z,-0.03
2018-12-04T00:27:39.236Z,-0.03
2018-12-04T00:28:10.349Z,-0.04
2018-12-04T00:28:41.499Z,-0.02
2018-12-04T00:29:12.649Z,0.00
2018-12-04T00:29:43.764Z,-0.02
2018-12-04T00:30:14.882Z,0.00
2018-12-04T00:30:46.036Z,-0.02
2018-12-04T00:31:17.157Z,-0.05
2018-12-04T00:31:48.272Z,-0.10
2018-12-04T00:32:19.399Z,-0.12
2018-12-04T00:32:50.513Z,-0.16
2018-12-04T00:33:21.626Z,-0.19
2018-12-04T00:33:52.732Z,-0.22
2018-12-04T00:34:23.891Z,-0.17
2018-12-04T00:34:55.017Z,-0.15
2018-12-04T00:35:26.137Z,-0.12
2018-12-04T00:35:57.247Z,-0.13
2018-12-04T00:36:28.360Z,-0.14
2018-12-04T00:36:59.594Z,-0.15
2018-12-04T00:37:30.748Z,-0.12
2018-12-04T00:38:01.874Z,-0.11
2018-12-04T00:38:33.021Z,-0.14
2018-12-04T00:39:04.148Z,-0.15
2018-12-04T00:39:35.272Z,-0.15
2018-12-04T00:40:06.449Z,-0.16
2018-12-04T00:40:37.575Z,-0.17
2018-12-04T00:41:08.686Z,-0.18
2018-12-04T00:41:39.810Z,-0.19
2018-12-04T00:42:10.918Z,-0.19
2018-12-04T00:42:42.051Z,-0.19
2018-12-04T00:43:13.173Z,-0.23
2018-12-04T00:43:44.282Z,-0.23
2018-12-04T00:44:15.421Z,-0.26
2018-12-04T00:44:46.537Z,-0.27
2018-12-04T00:45:17.692Z,-0.27
2018-12-04T00:45:48.812Z,-0.28
2018-12-04T00:46:19.929Z,-0.31
2018-12-04T00:46:51.063Z,-0.33
2018-12-04T00:47:22.196Z,-0.36
2018-12-04T00:47:53.326Z,-0.40
2018-12-04T00:48:24.456Z,-0.39
2018-12-04T00:48:55.586Z,-0.38
2018-12-04T00:49:26.700Z,-0.38
2018-12-04T00:49:57.820Z,-0.34
2018-12-04T00:50:29.022Z,-0.33
2018-12-04T00:51:00.141Z,-0.33
2018-12-04T00:51:31.259Z,-0.32
2018-12-04T00:52:02.371Z,-0.32
2018-12-04T00:52:33.490Z,-0.32
2018-12-04T00:53:04.626Z,-0.30
2018-12-04T00:53:35.744Z,-0.29
2018-12-04T00:54:06.860Z,-0.29
2018-12-04T00:54:37.990Z,-0.31
2018-12-04T00:55:09.130Z,-0.31
2018-12-04T00:55:40.271Z,-0.29
2018-12-04T00:56:11.388Z,-0.30
2018-12-04T00:56:42.492Z,-0.29
2018-12-04T00:57:13.592Z,-0.28
2018-12-04T00:57:44.719Z,-1.84
2018-12-04T00:58:15.838Z,-0.27
2018-12-04T00:58:46.947Z,-0.27
2018-12-04T00:59:18.061Z,-0.27
2018-12-04T00:59:49.321Z,-0.28
2018-12-04T01:00:20.472Z,-0.27
2018-12-04T01:00:51.595Z,-0.25
2018-12-04T01:01:23.012Z,-0.24
2018-12-04T01:01:54.143Z,-0.23
2018-12-04T01:02:25.286Z,-0.23
2018-12-04T01:02:56.541Z,-0.26
2018-12-04T01:03:27.681Z,-0.26
2018-12-04T01:03:58.824Z,-0.29
2018-12-04T01:04:29.946Z,-0.32
2018-12-04T01:05:01.053Z,-0.34
2018-12-04T01:05:32.182Z,-0.35
2018-12-04T01:06:03.352Z,-0.35
2018-12-04T01:06:34.479Z,-0.36
2018-12-04T01:07:05.602Z,-0.36
2018-12-04T01:07:36.727Z,-0.38
2018-12-04T01:08:08.063Z,-0.42
2018-12-04T01:08:39.179Z,-0.44
2018-12-04T01:09:10.296Z,-0.46
2018-12-04T01:09:41.445Z,-0.48
2018-12-04T01:10:12.555Z,-0.48
2018-12-04T01:10:43.664Z,-0.45
2018-12-04T01:11:14.821Z,-0.42
2018-12-04T01:11:45.952Z,-0.42
2018-12-04T01:12:17.092Z,-0.40
2018-12-04T01:12:48.217Z,-0.40
2018-12-04T01:13:19.330Z,-0.41
2018-12-04T01:13:50.444Z,-0.44
2018-12-04T01:14:21.562Z,-0.48
2018-12-04T01:14:52.698Z,-0.48
2018-12-04T01:15:23.940Z,-0.47
2018-12-04T01:15:55.091Z,-0.50
2018-12-04T01:16:26.855Z,-0.49
2018-12-04T01:16:58.070Z,-0.50
2018-12-04T01:17:29.190Z,-0.51
2018-12-04T01:18:00.346Z,-0.51
2018-12-04T01:18:31.471Z,-0.50
2018-12-04T01:19:02.589Z,-0.53
2018-12-04T01:19:33.749Z,-0.54
2018-12-04T01:20:04.877Z,-0.57
2018-12-04T01:20:35.992Z,-0.54
2018-12-04T01:21:07.101Z,-0.55
2018-12-04T01:21:38.225Z,-0.55
2018-12-04T01:22:09.362Z,-0.53
2018-12-04T01:22:40.518Z,-0.57
2018-12-04T01:23:11.633Z,-0.59
2018-12-04T01:23:42.776Z,-0.58
2018-12-04T01:24:13.907Z,-0.56
2018-12-04T01:24:45.041Z,-0.56
2018-12-04T01:25:16.178Z,-0.57
2018-12-04T01:25:47.310Z,-0.58
2018-12-04T01:26:18.441Z,-0.60
2018-12-04T01:26:49.548Z,-0.60
2018-12-04T01:27:20.662Z,-0.61
2018-12-04T01:27:51.847Z,-0.62
2018-12-04T01:28:22.962Z,-0.63
2018-12-04T01:28:54.089Z,-0.64
2018-12-04T01:29:25.189Z,-0.65
2018-12-04T01:29:56.299Z,-0.63
2018-12-04T01:30:27.409Z,-0.63
2018-12-04T01:30:58.513Z,-0.62
2018-12-04T01:31:29.644Z,-0.62
2018-12-04T01:32:00.773Z,-0.62
2018-12-04T01:32:31.885Z,-0.60
2018-12-04T01:33:03.041Z,-0.60
2018-12-04T01:33:34.163Z,-0.61
2018-12-04T01:34:05.274Z,-0.62
2018-12-04T01:34:36.388Z,-0.64
2018-12-04T01:35:07.516Z,-0.65
2018-12-04T01:35:38.664Z,-0.66
2018-12-04T01:36:09.818Z,-0.68
2018-12-04T01:36:40.945Z,-0.71
2018-12-04T01:37:12.072Z,-0.76
2018-12-04T01:37:43.228Z,-0.76
2018-12-04T01:38:14.341Z,-0.76
2018-12-04T01:38:45.462Z,-0.74
2018-12-04T01:39:16.606Z,-0.74
2018-12-04T01:39:47.726Z,-0.77
2018-12-04T01:40:18.836Z,-0.78
2018-12-04T01:40:49.959Z,-0.78
2018-12-04T01:41:21.160Z,-0.78
2018-12-04T01:41:53.073Z,-0.78
2018-12-04T01:42:24.792Z,-0.79
2018-12-04T01:42:55.908Z,-0.80
2018-12-04T01:43:27.351Z,-0.79
2018-12-04T01:43:58.515Z,-0.80
2018-12-04T01:44:29.631Z,-0.79
2018-12-04T01:45:00.735Z,-0.78
2018-12-04T01:45:32.157Z,-0.77
2018-12-04T01:46:03.319Z,-0.77
2018-12-04T01:46:34.683Z,-0.76
2018-12-04T01:47:05.785Z,-0.75
2018-12-04T01:47:36.897Z,-0.74
2018-12-04T01:48:08.012Z,-0.73
2018-12-04T01:48:39.137Z,-0.71
2018-12-04T01:49:10.255Z,-0.71
2018-12-04T01:49:41.367Z,-0.71
2018-12-04T01:50:12.482Z,-0.73
2018-12-04T01:50:43.762Z,-2.65
2018-12-04T01:51:14.889Z,-0.73
2018-12-04T01:51:46.005Z,-0.72
2018-12-04T01:52:17.124Z,-0.71
2018-12-04T01:52:48.278Z,-0.71
2018-12-04T01:53:19.406Z,-0.69
2018-12-04T01:53:50.527Z,-0.69
2018-12-04T01:54:21.658Z,-0.69
2018-12-04T01:54:52.781Z,-0.72
2018-12-04T01:55:23.913Z,-0.73
2018-12-04T01:55:55.069Z,-0.72
2018-12-04T01:56:26.183Z,-0.71
2018-12-04T01:56:57.376Z,-0.69
2018-12-04T01:57:28.494Z,-0.66
2018-12-04T01:57:59.656Z,-0.65
2018-12-04T01:58:30.784Z,-0.64
2018-12-04T01:59:01.883Z,-0.63
2018-12-04T01:59:33.008Z,-0.63
2018-12-04T02:00:04.122Z,-0.60
2018-12-04T02:00:35.253Z,-0.59
2018-12-04T02:01:06.405Z,-0.57
2018-12-04T02:01:37.528Z,-0.55
2018-12-04T02:02:08.640Z,-0.54
2018-12-04T02:02:39.758Z,-0.51
2018-12-04T02:03:10.875Z,-0.51
2018-12-04T02:03:41.996Z,-0.52
2018-12-04T02:04:13.157Z,-0.46
2018-12-04T02:04:44.273Z,-0.45
2018-12-04T02:05:15.393Z,-0.44
2018-12-04T02:05:46.514Z,-0.43
2018-12-04T02:06:17.680Z,-0.42
2018-12-04T02:06:48.833Z,-0.41
2018-12-04T02:07:19.949Z,-0.40
2018-12-04T02:07:51.113Z,-0.39
2018-12-04T02:08:22.539Z,-0.36
2018-12-04T02:08:53.660Z,-0.35
2018-12-04T02:09:24.790Z,-0.35
2018-12-04T02:09:55.949Z,-0.32
2018-12-04T02:10:27.066Z,-0.31
2018-12-04T02:10:58.221Z,-0.29
2018-12-04T02:11:29.334Z,-0.27
2018-12-04T02:12:00.456Z,-0.27
2018-12-04T02:12:31.569Z,-0.26
2018-12-04T02:13:02.682Z,-0.25
2018-12-04T02:13:33.792Z,-0.23
2018-12-04T02:14:04.906Z,-0.23
2018-12-04T02:14:36.067Z,-0.21
2018-12-04T02:15:07.949Z,-0.18
2018-12-04T02:15:39.084Z,-0.20
2018-12-04T02:16:10.214Z,-0.17
2018-12-04T02:16:41.325Z,-0.17
2018-12-04T02:17:12.454Z,-0.16
2018-12-04T02:17:43.560Z,-0.15
2018-12-04T02:18:14.682Z,-0.14
2018-12-04T02:18:45.806Z,-0.14
2018-12-04T02:19:16.923Z,-0.15
2018-12-04T02:19:48.062Z,-0.15
2018-12-04T02:20:19.170Z,-0.14
2018-12-04T02:20:50.295Z,-0.16
2018-12-04T02:21:21.452Z,-0.14
2018-12-04T02:21:52.564Z,-0.17
2018-12-04T02:22:23.678Z,-0.19
2018-12-04T02:22:54.785Z,-0.19
2018-12-04T02:23:25.900Z,-0.17
2018-12-04T02:23:57.016Z,-0.16
2018-12-04T02:24:28.153Z,-0.15
2018-12-04T02:24:59.277Z,-0.21
2018-12-04T02:25:30.432Z,-0.24
2018-12-04T02:26:01.753Z,-0.24
2018-12-04T02:26:32.956Z,-0.24
2018-12-04T02:27:04.064Z,-0.25
2018-12-04T02:27:35.216Z,-0.23
2018-12-04T02:28:06.340Z,-0.21
2018-12-04T02:28:37.463Z,-0.19
2018-12-04T02:29:08.610Z,-0.18
2018-12-04T02:29:39.732Z,-0.17
2018-12-04T02:30:10.865Z,-0.16
2018-12-04T02:30:41.988Z,-0.14
2018-12-04T02:31:13.145Z,-0.12
2018-12-04T02:31:44.265Z,-0.12
2018-12-04T02:32:15.377Z,-0.11
2018-12-04T02:32:46.532Z,-0.11
2018-12-04T02:33:17.649Z,-0.10
2018-12-04T02:33:48.765Z,-0.09
2018-12-04T02:34:19.884Z,-0.10
2018-12-04T02:34:51.062Z,-0.11
2018-12-04T02:35:22.184Z,-0.10
2018-12-04T02:35:53.303Z,-0.08
2018-12-04T02:36:24.429Z,-0.07
2018-12-04T02:36:55.534Z,-0.05
2018-12-04T02:37:26.661Z,-0.05
2018-12-04T02:37:57.767Z,-0.03
2018-12-04T02:38:28.889Z,-0.02
2018-12-04T02:39:00.019Z,-0.03
2018-12-04T02:39:31.154Z,-0.04
2018-12-04T02:40:02.312Z,-0.03
2018-12-04T02:40:33.439Z,-0.02
2018-12-04T02:41:04.565Z,-0.14
2018-12-04T02:41:35.682Z,-0.14
2018-12-04T02:42:06.802Z,-0.10
2018-12-04T02:42:38.007Z,-0.10
2018-12-04T02:43:09.136Z,-0.11
2018-12-04T02:43:40.261Z,-0.10
2018-12-04T02:44:11.586Z,-0.10
2018-12-04T02:44:42.706Z,-0.12
2018-12-04T02:45:13.835Z,-0.11
2018-12-04T02:45:44.954Z,-0.14
2018-12-04T02:46:16.079Z,-0.14
2018-12-04T02:46:47.209Z,-0.19
2018-12-04T02:47:18.329Z,-0.14
2018-12-04T02:47:49.483Z,-0.15
2018-12-04T02:48:20.635Z,-0.15
2018-12-04T02:48:51.744Z,-0.15
2018-12-04T02:49:22.851Z,-0.15
2018-12-04T02:49:53.975Z,-0.14
2018-12-04T02:50:25.138Z,-0.15
2018-12-04T02:50:56.272Z,-0.14
2018-12-04T02:51:27.384Z,-0.14
2018-12-04T02:51:58.502Z,-0.15
2018-12-04T02:52:29.643Z,-0.14
2018-12-04T02:53:00.797Z,-0.12
2018-12-04T02:53:31.942Z,-0.11
2018-12-04T02:54:03.049Z,-0.10
2018-12-04T02:54:34.157Z,-0.08
2018-12-04T02:55:05.278Z,-0.06
2018-12-04T02:55:36.435Z,-0.05
2018-12-04T02:56:07.569Z,-0.03
2018-12-04T02:56:38.721Z,-0.01
2018-12-04T02:57:09.877Z,-0.01
2018-12-04T02:57:40.972Z,0.00
2018-12-04T02:58:12.090Z,0.03
2018-12-04T02:58:43.187Z,0.04
2018-12-04T02:59:14.297Z,0.05
2018-12-04T02:59:45.439Z,0.03
2018-12-04T03:00:16.550Z,0.03
2018-12-04T03:00:47.659Z,0.06
2018-12-04T03:01:18.773Z,0.06
2018-12-04T03:01:49.942Z,0.06
2018-12-04T03:02:21.065Z,0.07
2018-12-04T03:02:52.176Z,0.04
2018-12-04T03:03:23.331Z,0.06
2018-12-04T03:03:54.455Z,0.07
2018-12-04T03:04:25.610Z,0.09
2018-12-04T03:04:56.724Z,0.08
2018-12-04T03:05:27.836Z,0.09
2018-12-04T03:05:58.947Z,0.09
2018-12-04T03:06:30.063Z,0.10
2018-12-04T03:07:01.190Z,0.11
2018-12-04T03:07:32.319Z,0.11
2018-12-04T03:08:03.428Z,0.13
2018-12-04T03:08:34.538Z,0.13
2018-12-04T03:09:05.663Z,0.12
2018-12-04T03:09:36.800Z,0.05
2018-12-04T03:10:07.962Z,0.11
2018-12-04T03:10:39.066Z,0.12
2018-12-04T03:11:10.178Z,0.12
2018-12-04T03:11:41.296Z,0.10
2018-12-04T03:12:12.405Z,0.13
2018-12-04T03:12:43.555Z,0.13
2018-12-04T03:13:14.660Z,0.13
2018-12-04T03:13:45.765Z,0.13
2018-12-04T03:14:16.893Z,0.14
2018-12-04T03:14:48.056Z,0.12
2018-12-04T03:15:19.167Z,0.15
2018-12-04T03:15:50.271Z,0.13
2018-12-04T03:16:21.376Z,0.16
2018-12-04T03:16:52.479Z,0.14
2018-12-04T03:17:23.597Z,0.15
2018-12-04T03:17:54.709Z,0.09
2018-12-04T03:18:25.826Z,0.13
2018-12-04T03:18:56.941Z,0.10
2018-12-04T03:19:28.086Z,0.11
2018-12-04T03:19:59.271Z,0.09
2018-12-04T03:20:30.382Z,0.09
2018-12-04T03:21:01.497Z,0.10
2018-12-04T03:21:32.597Z,0.09
2018-12-04T03:22:03.699Z,0.07
2018-12-04T03:22:34.836Z,0.03
2018-12-04T03:23:05.944Z,0.04
2018-12-04T03:23:37.071Z,0.06
2018-12-04T03:24:08.188Z,0.06
2018-12-04T03:24:39.344Z,0.07
2018-12-04T03:25:10.458Z,0.08
2018-12-04T03:25:41.569Z,0.08
2018-12-04T03:26:12.669Z,0.08
2018-12-04T03:26:43.841Z,0.09
2018-12-04T03:27:14.958Z,0.09
2018-12-04T03:27:46.075Z,0.08
2018-12-04T03:28:17.194Z,0.07
2018-12-04T03:28:48.311Z,0.03
2018-12-04T03:29:19.431Z,0.00
2018-12-04T03:29:50.556Z,-0.02
2018-12-04T03:30:21.731Z,-0.02
2018-12-04T03:30:52.958Z,-0.04
2018-12-04T03:31:24.233Z,-0.04
2018-12-04T03:31:55.379Z,-0.05
2018-12-04T03:32:26.670Z,-0.08
2018-12-04T03:32:57.800Z,-0.09
2018-12-04T03:33:28.943Z,-0.12
2018-12-04T03:34:00.075Z,-0.17
2018-12-04T03:34:31.202Z,-0.20
2018-12-04T03:35:02.375Z,-0.25
2018-12-04T03:35:33.491Z,-0.28
2018-12-04T03:36:04.607Z,-0.29
2018-12-04T03:36:35.735Z,-0.32
2018-12-04T03:37:06.852Z,-0.34
2018-12-04T03:37:38.290Z,-0.35
2018-12-04T03:38:09.415Z,-0.35
2018-12-04T03:38:40.525Z,-0.38
2018-12-04T03:39:11.636Z,-0.38
2018-12-04T03:39:42.758Z,-0.39
2018-12-04T03:40:13.923Z,-0.37
2018-12-04T03:40:45.037Z,-0.39
2018-12-04T03:41:16.161Z,-0.38
2018-12-04T03:41:47.260Z,-0.39
2018-12-04T03:42:18.376Z,-0.40
2018-12-04T03:42:49.498Z,-0.44
2018-12-04T03:43:20.611Z,-0.43
2018-12-04T03:43:51.732Z,-0.44
2018-12-04T03:44:22.857Z,-0.45
2018-12-04T03:44:54.080Z,-0.45
2018-12-04T03:45:25.242Z,-0.47
2018-12-04T03:45:57.530Z,-0.46
2018-12-04T03:46:28.655Z,-0.45
2018-12-04T03:46:59.804Z,-0.45
2018-12-04T03:47:30.926Z,-0.46
2018-12-04T03:48:02.035Z,-0.45
2018-12-04T03:48:33.156Z,-0.47
2018-12-04T03:49:04.269Z,-0.51
2018-12-04T03:49:35.384Z,-0.50
2018-12-04T03:50:06.503Z,-0.72
2018-12-04T03:50:37.675Z,-0.54
2018-12-04T03:51:08.788Z,-0.52
2018-12-04T03:51:39.937Z,-0.52
2018-12-04T03:52:11.259Z,-0.54
2018-12-04T03:52:42.375Z,-0.55
2018-12-04T03:53:13.489Z,-0.54
2018-12-04T03:53:44.608Z,-0.55
2018-12-04T03:54:15.714Z,-0.52
2018-12-04T03:54:46.828Z,-0.53
2018-12-04T03:55:17.934Z,-0.55
2018-12-04T03:55:49.055Z,-0.58
2018-12-04T03:56:20.224Z,-0.57
2018-12-04T03:56:51.334Z,-0.55
2018-12-04T03:57:22.451Z,-0.55
2018-12-04T03:57:54.363Z,-0.56
2018-12-04T03:58:26.760Z,-0.55
2018-12-04T03:58:58.042Z,-0.55
2018-12-04T03:59:29.205Z,-0.55
2018-12-04T04:00:00.325Z,-0.56
2018-12-04T04:00:31.544Z,-0.57
2018-12-04T04:01:02.688Z,-0.57
2018-12-04T04:01:33.867Z,-0.59
2018-12-04T04:02:04.992Z,-0.60
2018-12-04T04:02:36.175Z,-0.59
2018-12-04T04:03:07.321Z,-0.60
2018-12-04T04:03:38.443Z,-0.60
2018-12-04T04:04:09.563Z,-0.62
2018-12-04T04:04:40.677Z,-0.62
2018-12-04T04:05:11.801Z,-0.62
2018-12-04T04:05:42.935Z,-0.62
2018-12-04T04:06:14.056Z,-0.64
2018-12-04T04:06:45.179Z,-0.65
2018-12-04T04:07:16.306Z,-0.67
2018-12-04T04:07:47.465Z,-0.67
2018-12-04T04:08:18.572Z,-0.67
2018-12-04T04:08:49.705Z,-0.66
2018-12-04T04:09:20.839Z,-0.64
2018-12-04T04:09:52.006Z,-0.63
2018-12-04T04:10:23.209Z,-0.62
2018-12-04T04:10:54.337Z,-0.66
2018-12-04T04:11:25.506Z,-0.65
2018-12-04T04:11:56.661Z,-0.64
2018-12-04T04:12:27.778Z,-0.64
2018-12-04T04:12:58.934Z,-0.63
2018-12-04T04:13:30.048Z,-0.63
2018-12-04T04:14:01.173Z,-0.62
2018-12-04T04:14:32.337Z,-1.43
2018-12-04T04:15:03.441Z,-0.62
2018-12-04T04:15:34.557Z,-0.59
2018-12-04T04:16:05.676Z,-0.60
2018-12-04T04:16:36.918Z,-0.63
2018-12-04T04:17:08.032Z,-0.65
2018-12-04T04:17:39.154Z,-0.67
2018-12-04T04:18:10.273Z,-0.68
2018-12-04T04:18:41.391Z,-0.72
2018-12-04T04:19:12.505Z,-0.76
2018-12-04T04:19:43.667Z,-0.78
2018-12-04T04:20:14.783Z,-0.79
2018-12-04T04:20:45.913Z,-0.80
2018-12-04T04:21:17.029Z,-0.85
2018-12-04T04:21:48.147Z,-0.88
2018-12-04T04:22:19.316Z,-0.91
2018-12-04T04:22:50.442Z,-0.95
2018-12-04T04:23:21.564Z,-0.98
2018-12-04T04:23:52.678Z,-1.01
2018-12-04T04:24:23.781Z,-1.02
2018-12-04T04:24:54.930Z,-1.04
2018-12-04T04:25:26.058Z,-1.03
2018-12-04T04:25:57.218Z,-1.03
2018-12-04T04:26:28.339Z,-1.04
2018-12-04T04:26:59.458Z,-1.03
2018-12-04T04:27:30.709Z,-1.04
2018-12-04T04:28:01.837Z,-1.03
2018-12-04T04:28:32.962Z,-1.04
2018-12-04T04:29:04.071Z,-1.04
2018-12-04T04:29:35.185Z,-1.02
2018-12-04T04:30:06.296Z,-1.01
2018-12-04T04:30:37.436Z,-1.00
2018-12-04T04:31:08.703Z,-1.02
2018-12-04T04:31:39.935Z,-1.04
2018-12-04T04:32:11.054Z,-1.05
2018-12-04T04:32:42.214Z,-1.07
2018-12-04T04:33:13.326Z,-1.07
2018-12-04T04:33:44.439Z,-1.08
2018-12-04T04:34:15.709Z,-1.10
2018-12-04T04:34:46.829Z,-1.08
2018-12-04T04:35:17.945Z,-1.06
2018-12-04T04:35:49.061Z,-1.07
2018-12-04T04:36:20.196Z,-1.11
2018-12-04T04:36:51.321Z,-1.09
2018-12-04T04:37:22.437Z,-1.10
2018-12-04T04:37:53.588Z,-1.09
2018-12-04T04:38:24.706Z,-1.05
2018-12-04T04:38:55.815Z,-1.02
2018-12-04T04:39:26.937Z,-1.01
2018-12-04T04:39:58.063Z,-1.01
2018-12-04T04:40:29.182Z,-0.98
2018-12-04T04:41:00.304Z,-0.95
2018-12-04T04:41:31.414Z,-0.95
2018-12-04T04:42:02.516Z,-0.95
2018-12-04T04:42:33.761Z,-0.92
2018-12-04T04:43:04.878Z,-0.89
2018-12-04T04:43:35.987Z,-0.88
2018-12-04T04:44:07.091Z,-0.87
2018-12-04T04:44:38.193Z,-0.83
2018-12-04T04:45:09.313Z,-0.80
2018-12-04T04:45:40.452Z,-0.77
2018-12-04T04:46:11.582Z,-0.77
2018-12-04T04:46:42.690Z,-0.75
2018-12-04T04:47:13.828Z,-0.74
2018-12-04T04:47:44.989Z,-0.74
2018-12-04T04:48:16.128Z,-0.71
2018-12-04T04:48:47.246Z,-0.69
2018-12-04T04:49:18.368Z,-0.68
2018-12-04T04:49:49.477Z,-0.65
2018-12-04T04:50:20.653Z,-0.63
2018-12-04T04:50:51.784Z,-0.62
2018-12-04T04:51:22.900Z,-0.60
2018-12-04T04:51:54.021Z,-0.60
2018-12-04T04:52:25.147Z,-0.60
2018-12-04T04:52:56.298Z,-0.60
2018-12-04T04:53:27.405Z,-0.61
2018-12-04T04:53:58.532Z,-0.61
2018-12-04T04:54:29.636Z,-0.60
2018-12-04T04:55:00.746Z,-0.59
2018-12-04T04:55:31.861Z,-0.60
2018-12-04T04:56:02.974Z,-0.60
2018-12-04T04:56:34.089Z,-0.60
2018-12-04T04:57:05.211Z,-0.60
2018-12-04T04:57:36.321Z,-0.60
2018-12-04T04:58:07.480Z,-0.60
2018-12-04T04:58:38.604Z,-0.58
2018-12-04T04:59:09.715Z,-0.57
2018-12-04T04:59:40.864Z,-0.55
2018-12-04T05:00:11.976Z,-0.54
2018-12-04T05:00:43.105Z,-0.52
2018-12-04T05:01:14.225Z,-0.52
2018-12-04T05:01:45.340Z,-0.52
2018-12-04T05:02:16.453Z,-0.51
2018-12-04T05:02:47.573Z,-0.51
2018-12-04T05:03:18.760Z,-0.51
2018-12-04T05:03:49.880Z,-0.50
2018-12-04T05:04:21.030Z,-0.50
2018-12-04T05:04:52.148Z,-0.51
2018-12-04T05:05:23.273Z,-0.50
2018-12-04T05:05:54.391Z,-0.51
2018-12-04T05:06:25.523Z,-0.55
2018-12-04T05:06:56.645Z,-0.55
2018-12-04T05:07:27.756Z,-0.54
2018-12-04T05:07:58.905Z,-0.57
2018-12-04T05:08:30.021Z,-0.56
2018-12-04T05:09:01.134Z,-0.58
2018-12-04T05:09:32.240Z,-0.61
2018-12-04T05:10:03.354Z,-0.62
2018-12-04T05:10:34.462Z,-0.63
2018-12-04T05:11:05.583Z,-0.64
2018-12-04T05:11:36.692Z,-0.65
2018-12-04T05:12:07.812Z,-0.68
2018-12-04T05:12:38.913Z,-0.69
2018-12-04T05:13:10.069Z,-0.67
2018-12-04T05:13:41.198Z,-0.67
2018-12-04T05:14:12.319Z,-0.67
2018-12-04T05:14:43.437Z,-0.68
2018-12-04T05:15:14.542Z,-0.70
2018-12-04T05:15:45.681Z,-0.70
2018-12-04T05:16:16.829Z,-0.70
2018-12-04T05:16:47.945Z,-0.69
2018-12-04T05:17:19.053Z,-0.69
2018-12-04T05:17:50.169Z,-0.69
2018-12-04T05:18:21.298Z,-0.69
2018-12-04T05:18:52.462Z,-0.69
2018-12-04T05:19:23.695Z,-0.70
2018-12-04T05:19:54.810Z,-0.70
2018-12-04T05:20:25.913Z,-0.72
2018-12-04T05:20:57.045Z,-0.75
2018-12-04T05:21:28.203Z,-0.76
2018-12-04T05:21:59.316Z,-0.77
2018-12-04T05:22:30.416Z,-0.76
2018-12-04T05:23:01.529Z,-0.75
2018-12-04T05:23:32.655Z,-0.74
2018-12-04T05:24:03.769Z,-0.74
2018-12-04T05:24:34.884Z,-0.74
2018-12-04T05:25:06.046Z,-0.72
2018-12-04T05:25:37.158Z,-0.73
2018-12-04T05:26:08.272Z,-0.74
2018-12-04T05:26:39.392Z,-0.72
2018-12-04T05:27:10.517Z,-0.71
2018-12-04T05:27:41.629Z,-0.72
2018-12-04T05:28:12.752Z,-0.71
2018-12-04T05:28:43.860Z,-0.70
2018-12-04T05:29:14.982Z,-0.70
2018-12-04T05:29:46.101Z,-0.71
2018-12-04T05:30:17.247Z,-0.69
2018-12-04T05:30:48.364Z,-0.68
2018-12-04T05:31:19.476Z,-0.64
2018-12-04T05:31:50.594Z,-0.62
2018-12-04T05:32:21.727Z,-0.59
2018-12-04T05:32:52.838Z,-0.58
2018-12-04T05:33:23.957Z,-0.57
2018-12-04T05:33:55.077Z,-0.56
2018-12-04T05:34:26.225Z,-0.54
2018-12-04T05:34:57.350Z,-0.51
2018-12-04T05:35:28.476Z,-0.50
2018-12-04T05:35:59.585Z,-0.51
2018-12-04T05:36:30.694Z,-0.52
2018-12-04T05:37:01.848Z,-0.51
2018-12-04T05:37:32.975Z,-0.48
2018-12-04T05:38:04.104Z,-0.46
2018-12-04T05:38:35.216Z,-0.42
2018-12-04T05:39:06.377Z,-0.40
2018-12-04T05:39:37.573Z,-0.38
2018-12-04T05:40:08.695Z,-0.40
2018-12-04T05:40:39.843Z,-0.41
2018-12-04T05:41:10.993Z,-0.41
2018-12-04T05:41:42.161Z,-0.42
2018-12-04T05:42:13.354Z,-0.40
2018-12-04T05:42:44.464Z,-0.39
2018-12-04T05:43:15.574Z,-0.39
2018-12-04T05:43:46.700Z,-0.38
2018-12-04T05:44:17.861Z,-0.38
2018-12-04T05:44:49.007Z,-0.37
2018-12-04T05:45:20.123Z,-0.38
2018-12-04T05:45:51.242Z,-0.38
2018-12-04T05:46:22.396Z,-0.37
2018-12-04T05:46:53.513Z,-0.33
2018-12-04T05:47:24.635Z,-0.30
2018-12-04T05:47:55.754Z,-0.27
2018-12-04T05:48:26.858Z,-0.22
2018-12-04T05:48:57.969Z,-0.19
2018-12-04T05:49:29.138Z,-0.19
2018-12-04T05:50:01.264Z,-0.15
2018-12-04T05:50:32.521Z,-0.14
2018-12-04T05:51:03.689Z,-0.14
2018-12-04T05:51:34.830Z,-0.13
2018-12-04T05:52:05.946Z,-0.12
2018-12-04T05:52:37.041Z,-0.11
2018-12-04T05:53:08.141Z,-0.10
2018-12-04T05:53:39.254Z,-0.08
2018-12-04T05:54:10.374Z,-0.07
2018-12-04T05:54:41.485Z,-0.06
2018-12-04T05:55:12.584Z,-0.06
2018-12-04T05:55:43.688Z,-0.06
2018-12-04T05:56:14.834Z,-0.06
2018-12-04T05:56:46.015Z,-0.05
2018-12-04T05:57:17.206Z,-0.04
2018-12-04T05:57:48.327Z,-0.04
2018-12-04T05:58:19.462Z,-0.02
2018-12-04T05:58:50.598Z,-0.02
2018-12-04T05:59:21.704Z,-0.01
2018-12-04T05:59:52.820Z,-0.01
2018-12-04T06:00:23.932Z,0.00
2018-12-04T06:00:55.037Z,-0.02
2018-12-04T06:01:26.145Z,0.02
2018-12-04T06:01:57.297Z,0.03
2018-12-04T06:02:28.441Z,-2.62
2018-12-04T06:02:59.548Z,0.08
2018-12-04T06:03:30.641Z,0.12
2018-12-04T06:04:01.763Z,0.14
2018-12-04T06:04:32.867Z,0.14
2018-12-04T06:05:03.976Z,0.15
2018-12-04T06:05:35.105Z,0.14
2018-12-04T06:06:06.217Z,0.11
2018-12-04T06:06:37.329Z,0.07
2018-12-04T06:07:08.445Z,0.05
2018-12-04T06:07:39.605Z,0.06
2018-12-04T06:08:10.709Z,0.08
2018-12-04T06:08:41.826Z,0.10
2018-12-04T06:09:12.936Z,0.14
2018-12-04T06:09:44.062Z,0.14
2018-12-04T06:10:15.178Z,0.18
2018-12-04T06:10:46.283Z,0.20
2018-12-04T06:11:17.393Z,0.22
2018-12-04T06:11:48.513Z,0.24
2018-12-04T06:12:19.636Z,0.28
2018-12-04T06:12:50.798Z,0.28
2018-12-04T06:13:21.926Z,0.34
2018-12-04T06:13:53.032Z,0.36
2018-12-04T06:14:24.145Z,0.39
2018-12-04T06:14:55.264Z,0.42
2018-12-04T06:15:26.392Z,0.45
2018-12-04T06:15:57.519Z,0.47
2018-12-04T06:16:28.630Z,0.48
2018-12-04T06:16:59.745Z,0.48
2018-12-04T06:17:30.888Z,0.51
2018-12-04T06:18:01.988Z,0.48
2018-12-04T06:18:33.096Z,0.48
2018-12-04T06:19:04.201Z,0.47
2018-12-04T06:19:35.309Z,0.48
2018-12-04T06:20:06.417Z,0.31
2018-12-04T06:20:37.521Z,0.47
2018-12-04T06:21:08.677Z,0.44
2018-12-04T06:21:39.785Z,0.44
2018-12-04T06:22:10.884Z,0.45
2018-12-04T06:22:42.003Z,0.47
2018-12-04T06:23:13.110Z,0.45
2018-12-04T06:23:44.210Z,0.49
2018-12-04T06:24:15.322Z,0.50
2018-12-04T06:24:46.425Z,0.51
2018-12-04T06:25:17.545Z,0.53
2018-12-04T06:25:48.648Z,0.54
2018-12-04T06:26:19.788Z,0.54
2018-12-04T06:26:50.912Z,0.57
2018-12-04T06:27:22.009Z,0.59
2018-12-04T06:27:53.125Z,0.61
2018-12-04T06:28:24.230Z,0.62
2018-12-04T06:28:55.350Z,0.65
2018-12-04T06:29:26.463Z,0.65
2018-12-04T06:29:57.615Z,0.66
2018-12-04T06:30:28.717Z,0.64
2018-12-04T06:30:59.829Z,0.65
2018-12-04T06:31:30.958Z,0.69
2018-12-04T06:32:02.064Z,0.71
2018-12-04T06:32:33.219Z,0.72
2018-12-04T06:33:04.317Z,0.72
2018-12-04T06:33:35.434Z,0.73
2018-12-04T06:34:06.540Z,0.73
2018-12-04T06:34:37.641Z,0.73
2018-12-04T06:35:08.751Z,0.74
2018-12-04T06:35:39.865Z,0.75
2018-12-04T06:36:10.966Z,0.77
2018-12-04T06:36:42.069Z,0.76
2018-12-04T06:37:13.174Z,0.83
2018-12-04T06:37:44.349Z,0.84
2018-12-04T06:38:15.471Z,0.88
2018-12-04T06:38:46.584Z,0.92
2018-12-04T06:39:17.709Z,0.93
2018-12-04T06:39:48.819Z,0.96
2018-12-04T06:40:19.935Z,0.97
2018-12-04T06:40:51.062Z,0.99
2018-12-04T06:41:22.178Z,0.99
2018-12-04T06:41:53.285Z,1.00
2018-12-04T06:42:24.386Z,1.01
2018-12-04T06:42:55.540Z,1.03
2018-12-04T06:43:26.749Z,1.05
2018-12-04T06:43:57.869Z,1.07